createdAt,value
2018-07-20T00:00:44.065Z,0.00
2018-07-20T00:01:44.104Z,0.00
2018-07-20T00:02:44.142Z,0.00
2018-07-20T00:03:44.180Z,0.00
2018-07-20T00:04:44.217Z,0.00
2018-07-20T00:05:44.278Z,0.00
2018-07-20T00:06:44.295Z,0.00
2018-07-20T00:07:44.332Z,0.00
2018-07-20T00:08:44.372Z,0.00
2018-07-20T00:09:44.406Z,0.00
2018-07-20T00:10:44.446Z,0.00
2018-07-20T00:11:44.484Z,0.00
2018-07-20T00:12:44.523Z,0.00
2018-07-20T00:13:44.575Z,0.00
2018-07-20T00:14:44.598Z,0.00
2018-07-20T00:15:44.634Z,0.00
2018-07-20T00:16:44.694Z,0.00
2018-07-20T00:17:44.711Z,0.00
2018-07-20T00:18:44.748Z,0.00
2018-07-20T00:19:44.789Z,0.00
2018-07-20T00:20:44.825Z,0.00
2018-07-20T00:21:44.860Z,0.00
2018-07-20T00:22:44.898Z,0.00
2018-07-20T00:23:44.936Z,0.00
2018-07-20T00:24:45.123Z,0.00
2018-07-20T00:25:45.013Z,0.00
2018-07-20T00:26:45.051Z,0.00
2018-07-20T00:27:45.088Z,0.00
2018-07-20T00:28:45.124Z,0.00
2018-07-20T00:29:45.163Z,0.00
2018-07-20T00:30:45.202Z,0.00
2018-07-20T00:31:45.237Z,0.00
2018-07-20T00:32:45.277Z,0.00
2018-07-20T00:33:45.315Z,0.00
2018-07-20T00:34:45.353Z,0.00
2018-07-20T00:35:45.391Z,0.00
2018-07-20T00:36:45.428Z,0.00
2018-07-20T00:37:45.464Z,0.00
2018-07-20T00:38:45.504Z,0.00
2018-07-20T00:39:45.545Z,0.00
2018-07-20T00:40:45.579Z,0.00
2018-07-20T00:41:45.615Z,0.00
2018-07-20T00:42:45.663Z,0.00
2018-07-20T00:43:45.693Z,0.00
2018-07-20T00:44:45.729Z,0.00
2018-07-20T00:45:45.768Z,0.00
2018-07-20T00:46:45.813Z,0.00
2018-07-20T00:47:45.842Z,0.00
2018-07-20T00:48:45.884Z,0.00
2018-07-20T00:49:45.919Z,0.00
2018-07-20T00:50:45.956Z,0.00
2018-07-20T00:51:45.997Z,0.00
2018-07-20T00:52:46.031Z,0.00
2018-07-20T00:53:46.075Z,0.00
2018-07-20T00:54:46.109Z,0.00
2018-07-20T00:55:46.143Z,0.00
2018-07-20T00:56:46.178Z,0.00
2018-07-20T00:57:46.225Z,0.00
2018-07-20T00:58:46.257Z,0.00
2018-07-20T00:59:46.292Z,0.00
2018-07-20T01:00:46.329Z,0.00
2018-07-20T01:01:46.367Z,0.00
2018-07-20T01:02:46.414Z,0.00
2018-07-20T01:03:46.444Z,0.00
2018-07-20T01:04:46.481Z,0.00
2018-07-20T01:05:46.525Z,0.00
2018-07-20T01:06:46.563Z,0.00
2018-07-20T01:07:46.593Z,0.00
2018-07-20T01:08:46.630Z,0.00
2018-07-20T01:09:46.669Z,0.00
2018-07-20T01:10:46.708Z,0.00
2018-07-20T01:11:46.841Z,0.00
2018-07-20T01:12:46.779Z,0.00
2018-07-20T01:13:46.817Z,0.00
2018-07-20T01:14:46.856Z,0.00
2018-07-20T01:15:46.895Z,0.00
2018-07-20T01:16:46.928Z,0.00
2018-07-20T01:17:46.966Z,0.00
2018-07-20T01:18:47.005Z,0.00
2018-07-20T01:19:47.043Z,0.00
2018-07-20T01:20:47.078Z,0.00
2018-07-20T01:21:47.119Z,0.00
2018-07-20T01:22:47.158Z,0.00
2018-07-20T01:23:47.195Z,0.00
2018-07-20T01:24:47.231Z,0.00
2018-07-20T01:25:47.265Z,0.00
2018-07-20T01:26:47.356Z,0.00
2018-07-20T01:27:47.345Z,0.00
2018-07-20T01:28:47.377Z,0.00
2018-07-20T01:29:47.413Z,0.00
2018-07-20T01:30:47.452Z,0.00
2018-07-20T01:31:47.490Z,0.00
2018-07-20T01:32:47.527Z,0.00
2018-07-20T01:33:47.565Z,0.00
2018-07-20T01:34:47.605Z,0.00
2018-07-20T01:35:47.637Z,0.00
2018-07-20T01:36:47.678Z,0.00
2018-07-20T01:37:47.714Z,0.00
2018-07-20T01:38:47.751Z,0.00
2018-07-20T01:39:47.789Z,0.00
2018-07-20T01:40:47.825Z,0.00
2018-07-20T01:41:47.863Z,0.00
2018-07-20T01:42:47.900Z,0.00
2018-07-20T01:43:47.938Z,0.00
2018-07-20T01:44:47.974Z,0.00
2018-07-20T01:45:48.016Z,0.00
2018-07-20T01:46:48.050Z,0.00
2018-07-20T01:47:48.087Z,0.00
2018-07-20T01:48:48.124Z,0.00
2018-07-20T01:49:48.162Z,0.00
2018-07-20T01:50:48.198Z,0.00
2018-07-20T01:51:48.245Z,0.00
2018-07-20T01:52:48.273Z,0.00
2018-07-20T01:53:48.309Z,0.00
2018-07-20T01:54:48.347Z,0.00
2018-07-20T01:55:48.386Z,0.00
2018-07-20T01:56:48.430Z,0.00
2018-07-20T01:57:48.467Z,0.00
2018-07-20T01:58:48.494Z,0.00
2018-07-20T01:59:48.543Z,0.00
2018-07-20T02:00:48.569Z,0.00
2018-07-20T02:01:48.606Z,0.00
2018-07-20T02:02:48.645Z,0.00
2018-07-20T02:03:48.680Z,0.00
2018-07-20T02:04:48.718Z,0.00
2018-07-20T02:05:48.755Z,0.00
2018-07-20T02:06:48.792Z,0.00
2018-07-20T02:07:48.828Z,0.00
2018-07-20T02:08:48.871Z,0.00
2018-07-20T02:09:48.912Z,0.00
2018-07-20T02:10:48.941Z,0.00
2018-07-20T02:11:48.979Z,0.00
2018-07-20T02:12:49.015Z,0.00
2018-07-20T02:13:49.053Z,0.00
2018-07-20T02:14:49.089Z,0.00
2018-07-20T02:15:49.128Z,0.00
2018-07-20T02:16:49.163Z,0.00
2018-07-20T02:17:49.201Z,0.00
2018-07-20T02:18:49.239Z,0.00
2018-07-20T02:19:49.279Z,0.00
2018-07-20T02:20:49.321Z,0.00
2018-07-20T02:21:49.351Z,0.00
2018-07-20T02:22:49.386Z,0.00
2018-07-20T02:23:49.425Z,0.00
2018-07-20T02:24:49.462Z,0.00
2018-07-20T02:25:49.500Z,0.00
2018-07-20T02:26:49.535Z,0.00
2018-07-20T02:27:49.572Z,0.00
2018-07-20T02:28:49.616Z,0.00
2018-07-20T02:29:49.646Z,0.00
2018-07-20T02:30:49.686Z,0.00
2018-07-20T02:31:49.720Z,0.00
2018-07-20T02:32:49.757Z,0.00
2018-07-20T02:33:49.793Z,0.00
2018-07-20T02:34:49.836Z,0.00
2018-07-20T02:35:49.877Z,0.00
2018-07-20T02:36:49.904Z,0.00
2018-07-20T02:37:49.943Z,0.00
2018-07-20T02:38:49.980Z,0.00
2018-07-20T02:39:50.018Z,0.00
2018-07-20T02:40:50.054Z,0.00
2018-07-20T02:41:50.094Z,0.00
2018-07-20T02:42:50.127Z,4.00
2018-07-20T02:43:50.163Z,4.00
2018-07-20T02:44:50.204Z,4.00
2018-07-20T02:45:50.237Z,0.00
2018-07-20T02:46:50.275Z,4.00
2018-07-20T02:47:50.313Z,4.00
2018-07-20T02:48:50.349Z,4.00
2018-07-20T02:49:50.387Z,4.00
2018-07-20T02:50:50.428Z,4.00
2018-07-20T02:51:50.462Z,4.00
2018-07-20T02:52:50.502Z,8.00
2018-07-20T02:53:50.534Z,8.00
2018-07-20T02:54:50.582Z,8.00
2018-07-20T02:55:50.609Z,8.00
2018-07-20T02:56:50.648Z,12.00
2018-07-20T02:57:50.681Z,12.00
2018-07-20T02:58:50.727Z,12.00
2018-07-20T02:59:50.757Z,12.00
2018-07-20T03:00:50.793Z,20.00
2018-07-20T03:01:50.830Z,20.00
2018-07-20T03:02:50.865Z,20.00
2018-07-20T03:03:50.902Z,24.00
2018-07-20T03:04:50.939Z,28.00
2018-07-20T03:05:50.980Z,32.00
2018-07-20T03:06:51.016Z,36.00
2018-07-20T03:07:51.051Z,40.00
2018-07-20T03:08:51.091Z,44.00
2018-07-20T03:09:51.126Z,52.00
2018-07-20T03:10:51.213Z,60.00
2018-07-20T03:11:51.199Z,68.00
2018-07-20T03:12:51.235Z,76.00
2018-07-20T03:13:51.272Z,84.00
2018-07-20T03:14:51.310Z,92.00
2018-07-20T03:15:51.347Z,108.00
2018-07-20T03:16:51.383Z,116.00
2018-07-20T03:17:51.419Z,132.00
2018-07-20T03:18:51.460Z,148.00
2018-07-20T03:19:51.496Z,164.00
2018-07-20T03:20:51.531Z,184.00
2018-07-20T03:21:51.567Z,200.00
2018-07-20T03:22:51.606Z,220.00
2018-07-20T03:23:51.642Z,244.00
2018-07-20T03:24:51.678Z,268.00
2018-07-20T03:25:51.716Z,292.00
2018-07-20T03:26:51.760Z,312.00
2018-07-20T03:27:51.794Z,340.00
2018-07-20T03:28:51.826Z,372.00
2018-07-20T03:29:51.864Z,404.00
2018-07-20T03:30:51.899Z,432.00
2018-07-20T03:31:51.936Z,468.00
2018-07-20T03:32:52.027Z,500.00
2018-07-20T03:33:52.010Z,536.00
2018-07-20T03:34:52.047Z,576.00
2018-07-20T03:35:52.089Z,612.00
2018-07-20T03:36:52.120Z,656.00
2018-07-20T03:37:52.159Z,696.00
2018-07-20T03:38:52.193Z,744.00
2018-07-20T03:39:52.234Z,792.00
2018-07-20T03:40:52.266Z,844.00
2018-07-20T03:41:52.305Z,904.00
2018-07-20T03:42:52.341Z,960.00
2018-07-20T03:43:52.381Z,1020.00
2018-07-20T03:44:52.413Z,1088.00
2018-07-20T03:45:52.452Z,1156.00
2018-07-20T03:46:52.489Z,1228.00
2018-07-20T03:47:52.524Z,1304.00
2018-07-20T03:48:52.580Z,1376.00
2018-07-20T03:49:52.600Z,1452.00
2018-07-20T03:50:52.635Z,1524.00
2018-07-20T03:51:52.674Z,1596.00
2018-07-20T03:52:52.710Z,1672.00
2018-07-20T03:53:52.749Z,1748.00
2018-07-20T03:54:52.785Z,1824.00
2018-07-20T03:55:52.822Z,1904.00
2018-07-20T03:56:52.855Z,1992.00
2018-07-20T03:57:52.895Z,2084.00
2018-07-20T03:58:52.930Z,2176.00
2018-07-20T03:59:52.968Z,2268.00
2018-07-20T04:00:53.005Z,2360.00
2018-07-20T04:01:53.042Z,2444.00
2018-07-20T04:02:53.079Z,2532.00
2018-07-20T04:03:53.117Z,2620.00
2018-07-20T04:04:53.153Z,2700.00
2018-07-20T04:05:53.222Z,2788.00
2018-07-20T04:06:53.228Z,2880.00
2018-07-20T04:07:53.266Z,2968.00
2018-07-20T04:08:53.301Z,3060.00
2018-07-20T04:09:53.340Z,3148.00
2018-07-20T04:10:53.374Z,3228.00
2018-07-20T04:11:53.412Z,3312.00
2018-07-20T04:12:53.451Z,3392.00
2018-07-20T04:13:53.487Z,3472.00
2018-07-20T04:14:53.531Z,3552.00
2018-07-20T04:15:53.570Z,3624.00
2018-07-20T04:16:53.596Z,3696.00
2018-07-20T04:17:53.635Z,3772.00
2018-07-20T04:18:53.690Z,3836.00
2018-07-20T04:19:53.711Z,3908.00
2018-07-20T04:20:53.746Z,3980.00
2018-07-20T04:21:53.785Z,4056.00
2018-07-20T04:22:53.822Z,4120.00
2018-07-20T04:23:53.859Z,4176.00
2018-07-20T04:24:53.895Z,4244.00
2018-07-20T04:25:53.939Z,4308.00
2018-07-20T04:26:53.970Z,4360.00
2018-07-20T04:27:54.007Z,4404.00
2018-07-20T04:28:54.043Z,4424.00
2018-07-20T04:29:54.085Z,4412.00
2018-07-20T04:30:54.123Z,4408.00
2018-07-20T04:31:54.156Z,4416.00
2018-07-20T04:32:54.194Z,4436.00
2018-07-20T04:33:54.229Z,4464.00
2018-07-20T04:34:54.276Z,4488.00
2018-07-20T04:35:54.306Z,4508.00
2018-07-20T04:36:54.341Z,4532.00
2018-07-20T04:37:54.379Z,4556.00
2018-07-20T04:38:54.418Z,4576.00
2018-07-20T04:39:54.455Z,4600.00
2018-07-20T04:40:54.491Z,4624.00
2018-07-20T04:41:54.530Z,4656.00
2018-07-20T04:42:54.566Z,4696.00
2018-07-20T04:43:54.608Z,4736.00
2018-07-20T04:44:54.644Z,4772.00
2018-07-20T04:45:54.677Z,4816.00
2018-07-20T04:46:54.716Z,4892.00
2018-07-20T04:47:54.754Z,4972.00
2018-07-20T04:48:54.791Z,5060.00
2018-07-20T04:49:54.884Z,5140.00
2018-07-20T04:50:54.874Z,5224.00
2018-07-20T04:51:54.904Z,5296.00
2018-07-20T04:52:54.944Z,5404.00
2018-07-20T04:53:54.979Z,5504.00
2018-07-20T04:54:55.018Z,5620.00
2018-07-20T04:55:55.055Z,5740.00
2018-07-20T04:56:55.091Z,5848.00
2018-07-20T04:57:55.130Z,5940.00
2018-07-20T04:58:55.262Z,6040.00
2018-07-20T04:59:55.205Z,6152.00
2018-07-20T05:00:55.242Z,6260.00
2018-07-20T05:01:55.280Z,6356.00
2018-07-20T05:02:55.315Z,6452.00
2018-07-20T05:03:55.355Z,6548.00
2018-07-20T05:04:55.392Z,6640.00
2018-07-20T05:05:55.468Z,6732.00
2018-07-20T05:06:55.469Z,6804.00
2018-07-20T05:07:55.508Z,6868.00
2018-07-20T05:08:55.543Z,6928.00
2018-07-20T05:09:55.581Z,6984.00
2018-07-20T05:10:55.618Z,7020.00
2018-07-20T05:11:55.658Z,7052.00
2018-07-20T05:12:55.693Z,7080.00
2018-07-20T05:13:55.731Z,7108.00
2018-07-20T05:14:55.771Z,7132.00
2018-07-20T05:15:55.808Z,7188.00
2018-07-20T05:16:55.847Z,7220.00
2018-07-20T05:17:55.884Z,7252.00
2018-07-20T05:18:55.920Z,7284.00
2018-07-20T05:19:55.959Z,7324.00
2018-07-20T05:20:55.997Z,7344.00
2018-07-20T05:21:56.035Z,7368.00
2018-07-20T05:22:56.172Z,7364.00
2018-07-20T05:23:56.113Z,7368.00
2018-07-20T05:24:56.149Z,7348.00
2018-07-20T05:25:56.187Z,7328.00
2018-07-20T05:26:56.225Z,7316.00
2018-07-20T05:27:56.263Z,7304.00
2018-07-20T05:28:56.302Z,7304.00
2018-07-20T05:29:56.438Z,7312.00
2018-07-20T05:30:56.381Z,7320.00
2018-07-20T05:31:56.427Z,7320.00
2018-07-20T05:32:56.451Z,7344.00
2018-07-20T05:33:56.492Z,7372.00
2018-07-20T05:34:56.531Z,7432.00
2018-07-20T05:35:56.570Z,7476.00
2018-07-20T05:36:56.608Z,7480.00
2018-07-20T05:37:56.646Z,7524.00
2018-07-20T05:38:56.681Z,7536.00
2018-07-20T05:39:56.720Z,7564.00
2018-07-20T05:40:56.758Z,7564.00
2018-07-20T05:41:56.796Z,7536.00
2018-07-20T05:42:56.835Z,7516.00
2018-07-20T05:43:56.901Z,7504.00
2018-07-20T05:44:56.916Z,7476.00
2018-07-20T05:45:56.949Z,7508.00
2018-07-20T05:46:56.988Z,7532.00
2018-07-20T05:47:57.026Z,7556.00
2018-07-20T05:48:57.064Z,7596.00
2018-07-20T05:49:57.102Z,7656.00
2018-07-20T05:50:57.141Z,7720.00
2018-07-20T05:51:57.178Z,7752.00
2018-07-20T05:52:57.217Z,7808.00
2018-07-20T05:53:57.258Z,7860.00
2018-07-20T05:54:57.295Z,7896.00
2018-07-20T05:55:57.334Z,7928.00
2018-07-20T05:56:57.371Z,7980.00
2018-07-20T05:57:57.413Z,8032.00
2018-07-20T05:58:57.449Z,8080.00
2018-07-20T05:59:57.487Z,8136.00
2018-07-20T06:00:57.525Z,8208.00
2018-07-20T06:01:57.573Z,8284.00
2018-07-20T06:02:57.604Z,8372.00
2018-07-20T06:03:57.652Z,8416.00
2018-07-20T06:04:57.689Z,8456.00
2018-07-20T06:05:57.721Z,8472.00
2018-07-20T06:06:57.758Z,8500.00
2018-07-20T06:07:57.796Z,8524.00
2018-07-20T06:08:57.838Z,8512.00
2018-07-20T06:09:57.875Z,8468.00
2018-07-20T06:10:57.912Z,8412.00
2018-07-20T06:11:57.953Z,8344.00
2018-07-20T06:12:57.988Z,8272.00
2018-07-20T06:13:58.030Z,8208.00
2018-07-20T06:14:58.068Z,8192.00
2018-07-20T06:15:58.106Z,8204.00
2018-07-20T06:16:58.152Z,8208.00
2018-07-20T06:17:58.183Z,8292.00
2018-07-20T06:18:58.295Z,8384.00
2018-07-20T06:19:58.263Z,8460.00
2018-07-20T06:20:58.302Z,8528.00
2018-07-20T06:21:58.340Z,8592.00
2018-07-20T06:22:58.382Z,8648.00
2018-07-20T06:23:58.473Z,8688.00
2018-07-20T06:24:58.460Z,8712.00
2018-07-20T06:25:58.500Z,8732.00
2018-07-20T06:26:58.538Z,8780.00
2018-07-20T06:27:58.577Z,8812.00
2018-07-20T06:28:58.616Z,8840.00
2018-07-20T06:29:58.656Z,8892.00
2018-07-20T06:30:58.694Z,8944.00
2018-07-20T06:31:58.736Z,9000.00
2018-07-20T06:32:58.774Z,9040.00
2018-07-20T06:33:58.812Z,9072.00
2018-07-20T06:34:58.857Z,9108.00
2018-07-20T06:35:58.897Z,9148.00
2018-07-20T06:36:58.931Z,9180.00
2018-07-20T06:37:58.979Z,9220.00
2018-07-20T06:38:59.013Z,9248.00
2018-07-20T06:39:59.055Z,9292.00
2018-07-20T06:40:59.094Z,9340.00
2018-07-20T06:41:59.130Z,9396.00
2018-07-20T06:42:59.171Z,9464.00
2018-07-20T06:43:59.211Z,9516.00
2018-07-20T06:44:59.250Z,9576.00
2018-07-20T06:45:59.340Z,9640.00
2018-07-20T06:46:59.345Z,9680.00
2018-07-20T06:47:59.370Z,9720.00
2018-07-20T06:48:59.411Z,9736.00
2018-07-20T06:49:59.450Z,9736.00
2018-07-20T06:50:59.498Z,9760.00
2018-07-20T06:51:59.532Z,9780.00
2018-07-20T06:52:59.574Z,9816.00
2018-07-20T06:53:59.611Z,9860.00
2018-07-20T06:54:59.660Z,9900.00
2018-07-20T06:55:59.694Z,9940.00
2018-07-20T06:56:59.731Z,9980.00
2018-07-20T06:57:59.771Z,10004.00
2018-07-20T06:58:59.813Z,10000.00
2018-07-20T06:59:59.854Z,10072.00
2018-07-20T07:00:59.892Z,10100.00
2018-07-20T07:01:59.932Z,10120.00
2018-07-20T07:02:59.980Z,10160.00
2018-07-20T07:04:00.017Z,10164.00
2018-07-20T07:05:00.056Z,10156.00
2018-07-20T07:06:00.101Z,10184.00
2018-07-20T07:07:00.138Z,10152.00
2018-07-20T07:08:00.178Z,10104.00
2018-07-20T07:09:00.220Z,10144.00
2018-07-20T07:10:00.260Z,10164.00
2018-07-20T07:11:00.301Z,10184.00
2018-07-20T07:12:00.341Z,10216.00
2018-07-20T07:13:00.380Z,10240.00
2018-07-20T07:14:00.421Z,10248.00
2018-07-20T07:15:00.478Z,10268.00
2018-07-20T07:16:00.503Z,10284.00
2018-07-20T07:17:00.544Z,10296.00
2018-07-20T07:18:00.587Z,10308.00
2018-07-20T07:19:00.628Z,10308.00
2018-07-20T07:20:00.669Z,10296.00
2018-07-20T07:21:00.708Z,10316.00
2018-07-20T07:22:00.752Z,10316.00
2018-07-20T07:23:00.790Z,10312.00
2018-07-20T07:24:00.833Z,10296.00
2018-07-20T07:25:00.874Z,10260.00
2018-07-20T07:26:01.051Z,10244.00
2018-07-20T07:27:00.958Z,10196.00
2018-07-20T07:28:00.999Z,10148.00
2018-07-20T07:29:01.040Z,10100.00
2018-07-20T07:30:01.080Z,10072.00
2018-07-20T07:31:01.121Z,10064.00
2018-07-20T07:32:01.168Z,10032.00
2018-07-20T07:33:01.207Z,10036.00
2018-07-20T07:34:01.251Z,10016.00
2018-07-20T07:35:01.292Z,10016.00
2018-07-20T07:36:01.332Z,10008.00
2018-07-20T07:37:01.377Z,9988.00
2018-07-20T07:38:01.417Z,10000.00
2018-07-20T07:39:01.459Z,9968.00
2018-07-20T07:40:01.499Z,9940.00
2018-07-20T07:41:01.549Z,9948.00
2018-07-20T07:42:01.625Z,9944.00
2018-07-20T07:43:01.633Z,9928.00
2018-07-20T07:44:01.666Z,9940.00
2018-07-20T07:45:01.712Z,9968.00
2018-07-20T07:46:01.749Z,9976.00
2018-07-20T07:47:01.791Z,10024.00
2018-07-20T07:48:01.842Z,10044.00
2018-07-20T07:49:01.877Z,10072.00
2018-07-20T07:50:01.922Z,10088.00
2018-07-20T07:51:01.960Z,10112.00
2018-07-20T07:52:02.002Z,10092.00
2018-07-20T07:53:02.046Z,10076.00
2018-07-20T07:54:02.087Z,10088.00
2018-07-20T07:55:02.129Z,10084.00
2018-07-20T07:56:02.170Z,10040.00
2018-07-20T07:57:02.220Z,9968.00
2018-07-20T07:58:02.257Z,9936.00
2018-07-20T07:59:02.304Z,9884.00
2018-07-20T08:00:02.342Z,9840.00
2018-07-20T08:01:02.382Z,9824.00
2018-07-20T08:02:02.426Z,9808.00
2018-07-20T08:03:02.529Z,9792.00
2018-07-20T08:04:02.511Z,9804.00
2018-07-20T08:05:02.554Z,9840.00
2018-07-20T08:06:02.599Z,9892.00
2018-07-20T08:07:02.637Z,9952.00
2018-07-20T08:08:02.690Z,10024.00
2018-07-20T08:09:02.723Z,10088.00
2018-07-20T08:10:02.930Z,10160.00
2018-07-20T08:11:02.808Z,10216.00
2018-07-20T08:12:02.850Z,10252.00
2018-07-20T08:13:02.892Z,10284.00
2018-07-20T08:14:02.933Z,10288.00
2018-07-20T08:15:02.978Z,10320.00
2018-07-20T08:16:03.024Z,10376.00
2018-07-20T08:17:03.061Z,10420.00
2018-07-20T08:18:03.105Z,10456.00
2018-07-20T08:19:03.149Z,10484.00
2018-07-20T08:20:03.192Z,10492.00
2018-07-20T08:21:03.234Z,10500.00
2018-07-20T08:22:03.276Z,10492.00
2018-07-20T08:23:03.323Z,10504.00
2018-07-20T08:24:03.365Z,10480.00
2018-07-20T08:25:03.406Z,10420.00
2018-07-20T08:26:03.451Z,10396.00
2018-07-20T08:27:03.496Z,10352.00
2018-07-20T08:28:03.536Z,10288.00
2018-07-20T08:29:03.581Z,10188.00
2018-07-20T08:30:03.622Z,10132.00
2018-07-20T08:31:03.665Z,10064.00
2018-07-20T08:32:03.712Z,10032.00
2018-07-20T08:33:03.754Z,10004.00
2018-07-20T08:34:03.849Z,9972.00
2018-07-20T08:35:03.848Z,9968.00
2018-07-20T08:36:03.881Z,9932.00
2018-07-20T08:37:03.924Z,9916.00
2018-07-20T08:38:03.971Z,9888.00
2018-07-20T08:39:04.015Z,9856.00
2018-07-20T08:40:04.063Z,9816.00
2018-07-20T08:41:04.115Z,9776.00
2018-07-20T08:42:04.143Z,9744.00
2018-07-20T08:43:04.183Z,9692.00
2018-07-20T08:44:04.228Z,9612.00
2018-07-20T08:45:04.308Z,9584.00
2018-07-20T08:46:04.317Z,9568.00
2018-07-20T08:47:04.360Z,9556.00
2018-07-20T08:48:04.402Z,9508.00
2018-07-20T08:49:04.444Z,9472.00
2018-07-20T08:50:04.497Z,9436.00
2018-07-20T08:51:04.532Z,9396.00
2018-07-20T08:52:04.576Z,9368.00
2018-07-20T08:53:04.617Z,9300.00
2018-07-20T08:54:04.697Z,9216.00
2018-07-20T08:55:04.707Z,9176.00
2018-07-20T08:56:04.750Z,9132.00
2018-07-20T08:57:04.792Z,9088.00
2018-07-20T08:58:04.837Z,9116.00
2018-07-20T08:59:04.985Z,9112.00
2018-07-20T09:00:04.961Z,9104.00
2018-07-20T09:01:04.966Z,9116.00
2018-07-20T09:02:05.011Z,9148.00
2018-07-20T09:03:05.056Z,9176.00
2018-07-20T09:04:05.102Z,9192.00
2018-07-20T09:05:05.139Z,9160.00
2018-07-20T09:06:05.186Z,9152.00
2018-07-20T09:07:05.228Z,9136.00
2018-07-20T09:08:05.271Z,9124.00
2018-07-20T09:09:05.317Z,9120.00
2018-07-20T09:10:05.366Z,9120.00
2018-07-20T09:11:05.402Z,9152.00
2018-07-20T09:12:05.446Z,9156.00
2018-07-20T09:13:05.488Z,9188.00
2018-07-20T09:14:05.533Z,9220.00
2018-07-20T09:15:05.576Z,9260.00
2018-07-20T09:16:05.620Z,9292.00
2018-07-20T09:17:05.662Z,9312.00
2018-07-20T09:18:05.710Z,9320.00
2018-07-20T09:19:05.750Z,9316.00
2018-07-20T09:20:05.795Z,9296.00
2018-07-20T09:21:05.924Z,9288.00
2018-07-20T09:22:05.888Z,9288.00
2018-07-20T09:23:05.927Z,9304.00
2018-07-20T09:24:05.971Z,9352.00
2018-07-20T09:25:06.065Z,9272.00
2018-07-20T09:26:06.064Z,9372.00
2018-07-20T09:27:06.102Z,9412.00
2018-07-20T09:28:06.152Z,9448.00
2018-07-20T09:29:06.190Z,9492.00
2018-07-20T09:30:06.233Z,9576.00
2018-07-20T09:31:06.278Z,9644.00
2018-07-20T09:32:06.323Z,9696.00
2018-07-20T09:33:06.364Z,9740.00
2018-07-20T09:34:06.434Z,9752.00
2018-07-20T09:35:06.455Z,9736.00
2018-07-20T09:36:06.506Z,9696.00
2018-07-20T09:37:06.540Z,9624.00
2018-07-20T09:38:06.584Z,9596.00
2018-07-20T09:39:06.639Z,9608.00
2018-07-20T09:40:06.673Z,9588.00
2018-07-20T09:41:06.717Z,9592.00
2018-07-20T09:42:06.763Z,9636.00
2018-07-20T09:43:06.812Z,9688.00
2018-07-20T09:44:06.849Z,9732.00
2018-07-20T09:45:06.893Z,9764.00
2018-07-20T09:46:06.940Z,9776.00
2018-07-20T09:47:06.987Z,9784.00
2018-07-20T09:48:07.027Z,9788.00
2018-07-20T09:49:07.074Z,9820.00
2018-07-20T09:50:07.117Z,9888.00
2018-07-20T09:51:07.159Z,9968.00
2018-07-20T09:52:07.205Z,10028.00
2018-07-20T09:53:07.257Z,10120.00
2018-07-20T09:54:07.294Z,10220.00
2018-07-20T09:55:07.355Z,10344.00
2018-07-20T09:56:07.385Z,10452.00
2018-07-20T09:57:07.428Z,10576.00
2018-07-20T09:58:07.472Z,10700.00
2018-07-20T09:59:07.516Z,10808.00
2018-07-20T10:00:07.566Z,10896.00
2018-07-20T10:01:07.603Z,10956.00
2018-07-20T10:02:07.648Z,11020.00
2018-07-20T10:03:07.693Z,11036.00
2018-07-20T10:04:07.748Z,11004.00
2018-07-20T10:05:07.835Z,10996.00
2018-07-20T10:06:07.824Z,11028.00
2018-07-20T10:07:07.873Z,11048.00
2018-07-20T10:08:07.915Z,11092.00
2018-07-20T10:09:07.959Z,11104.00
2018-07-20T10:10:08.004Z,11068.00
2018-07-20T10:11:08.048Z,11012.00
2018-07-20T10:12:08.097Z,10944.00
2018-07-20T10:13:08.138Z,10828.00
2018-07-20T10:14:08.191Z,10708.00
2018-07-20T10:15:08.229Z,10592.00
2018-07-20T10:16:08.271Z,10484.00
2018-07-20T10:17:08.316Z,10364.00
2018-07-20T10:18:08.363Z,10276.00
2018-07-20T10:19:08.443Z,10216.00
2018-07-20T10:20:08.453Z,10192.00
2018-07-20T10:21:08.499Z,10168.00
2018-07-20T10:22:08.545Z,10172.00
2018-07-20T10:23:08.590Z,10204.00
2018-07-20T10:24:08.630Z,10260.00
2018-07-20T10:25:08.675Z,10392.00
2018-07-20T10:26:08.722Z,10472.00
2018-07-20T10:27:48.462Z,10540.00
2018-07-20T10:28:48.496Z,10652.00
2018-07-20T10:29:48.540Z,10724.00
2018-07-20T10:30:48.586Z,10832.00
2018-07-20T10:31:48.627Z,10804.00
2018-07-20T10:32:48.673Z,10660.00
2018-07-20T10:33:48.718Z,10500.00
2018-07-20T10:34:48.764Z,10324.00
2018-07-20T10:35:48.807Z,10152.00
2018-07-20T10:36:48.853Z,9984.00
2018-07-20T10:37:48.904Z,9852.00
2018-07-20T10:38:48.941Z,9740.00
2018-07-20T10:39:48.985Z,9700.00
2018-07-20T10:40:49.035Z,9664.00
2018-07-20T10:41:49.079Z,9624.00
2018-07-20T10:42:49.119Z,9624.00
2018-07-20T10:43:49.174Z,9556.00
2018-07-20T10:44:49.209Z,9548.00
2018-07-20T10:45:49.257Z,9572.00
2018-07-20T10:46:49.335Z,9664.00
2018-07-20T10:47:49.346Z,9868.00
2018-07-20T10:48:49.388Z,10184.00
2018-07-20T10:49:49.440Z,10620.00
2018-07-20T10:50:49.478Z,10892.00
2018-07-20T10:51:49.526Z,11036.00
2018-07-20T10:52:49.575Z,11088.00
2018-07-20T10:53:49.613Z,11148.00
2018-07-20T10:54:49.657Z,11240.00
2018-07-20T10:55:49.713Z,11196.00
2018-07-20T10:56:49.748Z,11184.00
2018-07-20T10:57:49.793Z,11108.00
2018-07-20T10:58:49.846Z,10836.00
2018-07-20T10:59:49.882Z,10552.00
2018-07-20T11:00:49.929Z,10340.00
2018-07-20T11:01:49.973Z,10252.00
2018-07-20T11:02:50.017Z,10196.00
2018-07-20T11:03:50.061Z,10268.00
2018-07-20T11:04:50.107Z,10276.00
2018-07-20T11:05:50.161Z,10224.00
2018-07-20T11:06:50.198Z,10092.00
2018-07-20T11:07:50.242Z,10024.00
2018-07-20T11:08:50.287Z,9928.00
2018-07-20T11:09:50.336Z,9856.00
2018-07-20T11:10:50.378Z,9800.00
2018-07-20T11:11:50.443Z,9772.00
2018-07-20T11:12:50.468Z,9812.00
2018-07-20T11:13:50.514Z,9908.00
2018-07-20T11:14:50.559Z,9976.00
2018-07-20T11:15:50.604Z,10048.00
2018-07-20T11:16:50.654Z,10116.00
2018-07-20T11:17:50.695Z,10152.00
2018-07-20T11:18:50.739Z,10244.00
2018-07-20T11:19:50.785Z,10360.00
2018-07-20T11:20:50.834Z,10356.00
2018-07-20T11:21:50.874Z,10480.00
2018-07-20T11:22:50.927Z,10612.00
2018-07-20T11:23:50.972Z,10756.00
2018-07-20T11:24:51.010Z,11004.00
2018-07-20T11:25:51.057Z,11164.00
2018-07-20T11:26:51.102Z,11376.00
2018-07-20T11:27:51.146Z,11648.00
2018-07-20T11:28:51.191Z,11860.00
2018-07-20T11:29:51.238Z,12048.00
2018-07-20T11:30:51.283Z,12216.00
2018-07-20T11:31:51.328Z,12420.00
2018-07-20T11:32:51.375Z,12668.00
2018-07-20T11:33:51.421Z,12904.00
2018-07-20T11:34:51.467Z,13116.00
2018-07-20T11:35:51.511Z,13248.00
2018-07-20T11:36:51.556Z,13372.00
2018-07-20T11:37:51.602Z,13464.00
2018-07-20T11:38:51.647Z,13504.00
2018-07-20T11:39:51.695Z,13484.00
2018-07-20T11:40:51.740Z,13488.00
2018-07-20T11:41:51.794Z,13512.00
2018-07-20T11:42:51.830Z,13584.00
2018-07-20T11:43:51.875Z,13716.00
2018-07-20T11:44:51.921Z,13836.00
2018-07-20T11:45:51.970Z,13968.00
2018-07-20T11:46:52.017Z,14084.00
2018-07-20T11:47:52.059Z,14156.00
2018-07-20T11:48:52.102Z,14256.00
2018-07-20T11:49:52.149Z,14372.00
2018-07-20T11:50:52.202Z,14516.00
2018-07-20T11:51:52.245Z,14656.00
2018-07-20T11:52:52.285Z,14784.00
2018-07-20T11:53:52.331Z,14908.00
2018-07-20T11:54:52.384Z,14988.00
2018-07-20T11:55:52.427Z,15088.00
2018-07-20T11:56:52.469Z,15188.00
2018-07-20T11:57:52.515Z,15304.00
2018-07-20T11:58:52.559Z,15428.00
2018-07-20T11:59:52.615Z,15536.00
2018-07-20T12:00:52.652Z,15652.00
2018-07-20T12:01:52.739Z,15796.00
2018-07-20T12:02:52.744Z,15912.00
2018-07-20T12:03:52.797Z,16076.00
2018-07-20T12:04:52.844Z,16224.00
2018-07-20T12:05:52.887Z,16544.00
2018-07-20T12:06:52.967Z,16704.00
2018-07-20T12:07:52.983Z,16896.00
2018-07-20T12:08:53.027Z,17024.00
2018-07-20T12:09:53.067Z,17088.00
2018-07-20T12:10:53.112Z,17184.00
2018-07-20T12:11:53.162Z,17280.00
2018-07-20T12:12:53.204Z,17376.00
2018-07-20T12:13:53.252Z,17504.00
2018-07-20T12:14:53.300Z,17568.00
2018-07-20T12:15:53.343Z,17664.00
2018-07-20T12:16:53.389Z,17632.00
2018-07-20T12:17:53.438Z,17632.00
2018-07-20T12:18:53.526Z,17568.00